ENCNEKBI

Guest
Details From ENCN - Kristiansand lufthavn Kjevik
To EKBI - Billund
Flight Number -
Tags generated
Created
Modified
Stats Distance 153 nm / 282 km
Max Altitude 11,800 ft / 3,597 m
Waypoints 3
Social Downloads 2
Likes 0
Share VATSIM

Download

Looking for another format? Having issues loading an existing format? Contact us
Advertisement - Login to hide

Notes

Basic altitude profile: - Ascent Rate: 2500ft/min - Ascent Speed: 250kts - Cruise Altitude: 35000ft - Cruise Speed: 420kts - Descent Rate: 1500ft/min - Descent Speed: 250kts Options: - Use NATs: yes - Use PACOTS: yes - Use low airways: yes - Use high airways: yes

Route

ENCN KEMEG EKBI

ID Type Via Altitude Latitude Longitude Leg Dist Tot Dist Heading (true) Name
O ENCN APT - 0 ft / 0 m 58.20419˚ 8.08534˚ - 0 nm - Kristiansand lufthavn Kjevik
KEMEG FIX - 11,800 ft / 3,597 m 56.72083˚ 8.87250˚ 92 nm 92 nm 164° / 164° -
O EKBI APT - 0 ft / 0 m 55.73618˚ 9.15206˚ 59 nm 152 nm 171° / 171° Billund

Altitude Profile

Advertisement - Login to hide

ENCN

Details ICAO ENCN (KRS)
Name Kristiansand lufthavn Kjevik
Region Norway
Timezone Europe/Oslo (UTC+1.0)
Stats Elevation 57 ft / 17 m (AMSL)
Location 58.204191° 8.085337°
Runways 1
Magnetic Variation 2.112° E

METAR

ENCN 150020Z AUTO VRB03KT 9999 FEW110/// BKN160/// M02/M02 Q0986

Decode

TAF

Not found

Departure Runways

ID Width Length Bearing (true) Bearing (mag) Surface Threshold Offset Overrun Length
04 148 ft / 45 m 6,667 ft / 2,032 m 34.94° 32.83° Asphalt 217 ft / 66 m 131 ft / 40 m
22 148 ft / 45 m 6,667 ft / 2,032 m 214.96° 212.85° Asphalt 325 ft / 99 m 312 ft / 95 m

EKBI

Details ICAO EKBI (BLL)
Name Billund
Region Denmark / Faroe Islands
Timezone Europe/Copenhagen (UTC+1.0)
Stats Elevation 247 ft / 75 m (AMSL)
Location 55.736183° 9.152056°
Runways 2
Magnetic Variation 2.522° E

METAR

EKBI 150020Z 21002KT 9999 FEW020CB BKN025 01/01 Q0986 R09/2///95

Decode

TAF

Not found

Destination Runways

ID Width Length Bearing (true) Bearing (mag) Surface Threshold Offset Overrun Length
09 148 ft / 45 m 9,165 ft / 2,794 m 86.83° 84.31° Asphalt 351 ft / 107 m 0 ft / 0 m
10 98 ft / 30 m 2,017 ft / 615 m 93.89° 91.37° Grass 0 ft / 0 m 0 ft / 0 m
27 148 ft / 45 m 9,165 ft / 2,794 m 266.87° 264.35° Asphalt 351 ft / 107 m 0 ft / 0 m
28 98 ft / 30 m 2,017 ft / 615 m 273.89° 271.37° Grass 0 ft / 0 m 0 ft / 0 m

Approach Navaids

Runway Type Ident Frequency Range Bearing (true) Bearing (mag) Slope Elevation
09 Localiser BIL 111.70 MHz 18 nm / 33 km 86.87° 84.35° - 247 ft / 75 m (AMSL)
09 Glidescope BIL 111.70 MHz 10 nm / 19 km 86.85° 84.33° 3.00° 247 ft / 75 m (AMSL)
27 Localiser LEL 110.70 MHz 18 nm / 33 km 266.83° 264.31° - 247 ft / 75 m (AMSL)
27 Glidescope LEL 110.70 MHz 10 nm / 19 km 266.85° 264.33° 3.00° 247 ft / 75 m (AMSL)
27 DME LEL 110.70 MHz 18 nm / 33 km - - - 246 ft / 75 m (AMSL)